Aktuell METAR/TAF ESNU/UME

230050Z AUTO 32002KT 9999 NCD M05/M06 Q1025=

222330Z 2300/2309 33004KT CAVOK=
Källa: Luftfartsverket (aro.lfv.se)